sensor_id;sensor_type;location;lat;lon;timestamp;P1;durP1;ratioP1;P2;durP2;ratioP2
19219;SDS011;9744;49.364;7.484;2022-07-23T00:00:24;8.23;;;5.13;;
19219;SDS011;9744;49.364;7.484;2022-07-23T00:02:52;5.82;;;5.18;;
19219;SDS011;9744;49.364;7.484;2022-07-23T00:05:19;7.35;;;5.60;;
19219;SDS011;9744;49.364;7.484;2022-07-23T00:07:47;11.73;;;6.07;;
19219;SDS011;9744;49.364;7.484;2022-07-23T00:10:14;8.95;;;5.50;;
19219;SDS011;9744;49.364;7.484;2022-07-23T00:12:42;6.38;;;4.28;;
19219;SDS011;9744;49.364;7.484;2022-07-23T00:15:09;6.90;;;4.97;;
19219;SDS011;9744;49.364;7.484;2022-07-23T00:17:37;5.90;;;5.15;;
19219;SDS011;9744;49.364;7.484;2022-07-23T00:20:06;9.10;;;4.93;;
19219;SDS011;9744;49.364;7.484;2022-07-23T00:22:34;6.13;;;4.63;;
19219;SDS011;9744;49.364;7.484;2022-07-23T00:25:01;9.43;;;4.50;;
19219;SDS011;9744;49.364;7.484;2022-07-23T00:27:29;6.68;;;4.90;;
19219;SDS011;9744;49.364;7.484;2022-07-23T00:29:56;7.85;;;5.72;;
19219;SDS011;9744;49.364;7.484;2022-07-23T00:32:23;7.13;;;5.22;;
19219;SDS011;9744;49.364;7.484;2022-07-23T00:34:51;8.93;;;5.45;;
19219;SDS011;9744;49.364;7.484;2022-07-23T00:37:19;8.10;;;6.13;;
19219;SDS011;9744;49.364;7.484;2022-07-23T00:39:46;8.95;;;5.30;;
19219;SDS011;9744;49.364;7.484;2022-07-23T00:42:14;6.63;;;5.93;;
19219;SDS011;9744;49.364;7.484;2022-07-23T00:44:41;8.70;;;5.57;;
19219;SDS011;9744;49.364;7.484;2022-07-23T00:47:08;8.98;;;6.03;;
19219;SDS011;9744;49.364;7.484;2022-07-23T00:49:36;7.53;;;5.97;;
19219;SDS011;9744;49.364;7.484;2022-07-23T00:52:03;8.10;;;6.82;;
19219;SDS011;9744;49.364;7.484;2022-07-23T00:54:33;9.45;;;7.60;;
19219;SDS011;9744;49.364;7.484;2022-07-23T00:57:00;8.43;;;7.50;;
19219;SDS011;9744;49.364;7.484;2022-07-23T00:59:27;13.82;;;7.65;;
19219;SDS011;9744;49.364;7.484;2022-07-23T01:01:56;9.50;;;7.20;;
19219;SDS011;9744;49.364;7.484;2022-07-23T01:04:23;11.75;;;6.60;;
19219;SDS011;9744;49.364;7.484;2022-07-23T01:06:50;9.98;;;7.00;;
19219;SDS011;9744;49.364;7.484;2022-07-23T01:09:18;7.97;;;6.50;;
19219;SDS011;9744;49.364;7.484;2022-07-23T01:11:46;8.13;;;6.65;;
19219;SDS011;9744;49.364;7.484;2022-07-23T01:14:14;6.90;;;5.95;;
19219;SDS011;9744;49.364;7.484;2022-07-23T01:16:43;11.13;;;7.32;;
19219;SDS011;9744;49.364;7.484;2022-07-23T01:19:11;11.05;;;6.72;;
19219;SDS011;9744;49.364;7.484;2022-07-23T01:21:40;6.70;;;6.10;;
19219;SDS011;9744;49.364;7.484;2022-07-23T01:24:10;7.43;;;5.90;;
19219;SDS011;9744;49.364;7.484;2022-07-23T01:26:45;6.75;;;5.93;;
19219;SDS011;9744;49.364;7.484;2022-07-23T01:29:14;5.97;;;5.35;;
19219;SDS011;9744;49.364;7.484;2022-07-23T01:31:43;8.52;;;6.05;;
19219;SDS011;9744;49.364;7.484;2022-07-23T01:34:11;9.43;;;5.30;;
19219;SDS011;9744;49.364;7.484;2022-07-23T01:36:38;6.10;;;5.50;;
19219;SDS011;9744;49.364;7.484;2022-07-23T01:39:06;7.55;;;5.60;;
19219;SDS011;9744;49.364;7.484;2022-07-23T01:41:35;11.25;;;5.60;;
19219;SDS011;9744;49.364;7.484;2022-07-23T01:44:03;6.63;;;5.82;;
19219;SDS011;9744;49.364;7.484;2022-07-23T01:46:31;7.95;;;5.70;;
19219;SDS011;9744;49.364;7.484;2022-07-23T01:49:00;6.20;;;5.60;;
19219;SDS011;9744;49.364;7.484;2022-07-23T01:51:50;9.77;;;5.53;;
19219;SDS011;9744;49.364;7.484;2022-07-23T01:54:31;7.28;;;5.55;;
19219;SDS011;9744;49.364;7.484;2022-07-23T01:57:02;7.15;;;5.40;;
19219;SDS011;9744;49.364;7.484;2022-07-23T01:59:29;5.90;;;5.40;;
19219;SDS011;9744;49.364;7.484;2022-07-23T02:01:57;5.63;;;4.88;;
19219;SDS011;9744;49.364;7.484;2022-07-23T02:04:25;5.80;;;5.30;;
19219;SDS011;9744;49.364;7.484;2022-07-23T02:06:53;7.90;;;5.82;;
19219;SDS011;9744;49.364;7.484;2022-07-23T02:09:21;7.50;;;5.45;;
19219;SDS011;9744;49.364;7.484;2022-07-23T02:11:48;5.80;;;5.22;;
19219;SDS011;9744;49.364;7.484;2022-07-23T02:14:19;7.30;;;5.65;;
19219;SDS011;9744;49.364;7.484;2022-07-23T02:16:46;10.63;;;6.20;;
19219;SDS011;9744;49.364;7.484;2022-07-23T02:19:14;9.02;;;6.13;;
19219;SDS011;9744;49.364;7.484;2022-07-23T02:21:41;7.70;;;6.57;;
19219;SDS011;9744;49.364;7.484;2022-07-23T02:24:08;8.55;;;6.80;;
19219;SDS011;9744;49.364;7.484;2022-07-23T02:26:36;7.43;;;6.28;;
19219;SDS011;9744;49.364;7.484;2022-07-23T02:29:05;10.77;;;6.32;;
19219;SDS011;9744;49.364;7.484;2022-07-23T02:31:34;10.52;;;7.03;;
19219;SDS011;9744;49.364;7.484;2022-07-23T02:34:02;8.07;;;7.15;;
19219;SDS011;9744;49.364;7.484;2022-07-23T02:36:29;10.68;;;7.85;;
19219;SDS011;9744;49.364;7.484;2022-07-23T02:38:58;9.73;;;8.73;;
19219;SDS011;9744;49.364;7.484;2022-07-23T02:41:28;8.70;;;7.80;;
19219;SDS011;9744;49.364;7.484;2022-07-23T02:43:55;9.57;;;8.57;;
19219;SDS011;9744;49.364;7.484;2022-07-23T02:46:22;11.75;;;8.18;;
19219;SDS011;9744;49.364;7.484;2022-07-23T02:48:51;11.35;;;8.80;;
19219;SDS011;9744;49.364;7.484;2022-07-23T02:51:18;9.85;;;6.40;;
19219;SDS011;9744;49.364;7.484;2022-07-23T02:53:52;7.72;;;5.70;;
19219;SDS011;9744;49.364;7.484;2022-07-23T02:56:20;7.20;;;6.25;;
19219;SDS011;9744;49.364;7.484;2022-07-23T02:58:47;8.10;;;5.63;;
19219;SDS011;9744;49.364;7.484;2022-07-23T03:01:15;6.88;;;5.75;;
19219;SDS011;9744;49.364;7.484;2022-07-23T03:03:44;6.00;;;5.40;;
19219;SDS011;9744;49.364;7.484;2022-07-23T03:06:13;6.30;;;4.70;;
19219;SDS011;9744;49.364;7.484;2022-07-23T03:08:40;8.10;;;6.05;;
19219;SDS011;9744;49.364;7.484;2022-07-23T03:11:07;6.28;;;5.30;;
19219;SDS011;9744;49.364;7.484;2022-07-23T03:13:37;7.30;;;5.80;;
19219;SDS011;9744;49.364;7.484;2022-07-23T03:16:05;6.03;;;5.43;;
19219;SDS011;9744;49.364;7.484;2022-07-23T03:18:35;8.23;;;5.88;;
19219;SDS011;9744;49.364;7.484;2022-07-23T03:21:03;7.75;;;5.82;;
19219;SDS011;9744;49.364;7.484;2022-07-23T03:23:31;8.90;;;5.95;;
19219;SDS011;9744;49.364;7.484;2022-07-23T03:25:59;7.30;;;6.57;;
19219;SDS011;9744;49.364;7.484;2022-07-23T03:28:26;7.10;;;6.40;;
19219;SDS011;9744;49.364;7.484;2022-07-23T03:30:53;7.57;;;6.78;;
19219;SDS011;9744;49.364;7.484;2022-07-23T03:33:20;6.32;;;5.68;;
19219;SDS011;9744;49.364;7.484;2022-07-23T03:35:48;8.18;;;6.00;;
19219;SDS011;9744;49.364;7.484;2022-07-23T03:38:21;7.60;;;5.97;;
19219;SDS011;9744;49.364;7.484;2022-07-23T03:40:50;7.30;;;5.15;;
19219;SDS011;9744;49.364;7.484;2022-07-23T03:43:18;6.43;;;5.72;;
19219;SDS011;9744;49.364;7.484;2022-07-23T03:45:46;6.65;;;5.80;;
19219;SDS011;9744;49.364;7.484;2022-07-23T03:48:14;6.97;;;5.93;;
19219;SDS011;9744;49.364;7.484;2022-07-23T03:50:43;8.00;;;5.97;;
19219;SDS011;9744;49.364;7.484;2022-07-23T03:53:10;5.93;;;5.43;;
19219;SDS011;9744;49.364;7.484;2022-07-23T03:55:38;5.93;;;5.32;;
19219;SDS011;9744;49.364;7.484;2022-07-23T03:58:06;8.75;;;5.50;;
19219;SDS011;9744;49.364;7.484;2022-07-23T04:00:34;12.95;;;6.55;;
19219;SDS011;9744;49.364;7.484;2022-07-23T04:03:02;6.28;;;5.65;;
19219;SDS011;9744;49.364;7.484;2022-07-23T04:05:29;6.13;;;5.53;;
19219;SDS011;9744;49.364;7.484;2022-07-23T04:08:05;6.35;;;5.75;;
19219;SDS011;9744;49.364;7.484;2022-07-23T04:10:35;9.57;;;5.60;;
19219;SDS011;9744;49.364;7.484;2022-07-23T04:13:04;7.07;;;5.60;;
19219;SDS011;9744;49.364;7.484;2022-07-23T04:15:33;10.25;;;6.43;;
19219;SDS011;9744;49.364;7.484;2022-07-23T04:18:01;8.85;;;6.45;;
19219;SDS011;9744;49.364;7.484;2022-07-23T04:20:37;6.85;;;6.20;;
19219;SDS011;9744;49.364;7.484;2022-07-23T04:23:05;6.97;;;6.28;;
19219;SDS011;9744;49.364;7.484;2022-07-23T04:25:33;8.13;;;5.32;;
19219;SDS011;9744;49.364;7.484;2022-07-23T04:28:01;7.70;;;6.68;;
19219;SDS011;9744;49.364;7.484;2022-07-23T04:30:30;7.05;;;5.88;;
19219;SDS011;9744;49.364;7.484;2022-07-23T04:32:57;6.63;;;6.00;;
19219;SDS011;9744;49.364;7.484;2022-07-23T04:35:27;7.55;;;5.93;;
19219;SDS011;9744;49.364;7.484;2022-07-23T04:38:02;7.28;;;6.13;;
19219;SDS011;9744;49.364;7.484;2022-07-23T04:40:29;9.80;;;6.28;;
19219;SDS011;9744;49.364;7.484;2022-07-23T04:42:57;23.70;;;7.20;;
19219;SDS011;9744;49.364;7.484;2022-07-23T04:45:24;15.43;;;6.45;;
19219;SDS011;9744;49.364;7.484;2022-07-23T04:47:53;14.82;;;8.85;;
19219;SDS011;9744;49.364;7.484;2022-07-23T04:50:21;13.75;;;7.70;;
19219;SDS011;9744;49.364;7.484;2022-07-23T04:52:51;12.15;;;7.25;;
19219;SDS011;9744;49.364;7.484;2022-07-23T04:55:19;14.43;;;7.18;;
19219;SDS011;9744;49.364;7.484;2022-07-23T04:57:46;13.07;;;7.68;;
19219;SDS011;9744;49.364;7.484;2022-07-23T05:00:14;19.77;;;7.75;;
19219;SDS011;9744;49.364;7.484;2022-07-23T05:02:41;19.33;;;9.73;;
19219;SDS011;9744;49.364;7.484;2022-07-23T05:05:10;16.02;;;11.73;;
19219;SDS011;9744;49.364;7.484;2022-07-23T05:07:39;17.70;;;12.30;;
19219;SDS011;9744;49.364;7.484;2022-07-23T05:10:07;17.75;;;10.90;;
19219;SDS011;9744;49.364;7.484;2022-07-23T05:12:35;9.38;;;7.82;;
19219;SDS011;9744;49.364;7.484;2022-07-23T05:15:04;13.00;;;8.05;;
19219;SDS011;9744;49.364;7.484;2022-07-23T05:17:32;14.50;;;7.68;;
19219;SDS011;9744;49.364;7.484;2022-07-23T05:20:01;14.48;;;7.50;;
19219;SDS011;9744;49.364;7.484;2022-07-23T05:22:30;8.90;;;7.28;;
19219;SDS011;9744;49.364;7.484;2022-07-23T05:24:58;10.85;;;7.00;;
19219;SDS011;9744;49.364;7.484;2022-07-23T05:27:25;9.98;;;6.38;;
19219;SDS011;9744;49.364;7.484;2022-07-23T05:29:55;11.90;;;6.40;;
19219;SDS011;9744;49.364;7.484;2022-07-23T05:32:22;7.25;;;5.85;;
19219;SDS011;9744;49.364;7.484;2022-07-23T05:34:58;22.02;;;6.25;;
19219;SDS011;9744;49.364;7.484;2022-07-23T05:37:25;10.02;;;6.40;;
19219;SDS011;9744;49.364;7.484;2022-07-23T05:39:54;9.50;;;5.65;;
19219;SDS011;9744;49.364;7.484;2022-07-23T05:42:21;11.35;;;6.70;;
19219;SDS011;9744;49.364;7.484;2022-07-23T05:44:48;9.38;;;7.15;;
19219;SDS011;9744;49.364;7.484;2022-07-23T05:47:16;9.27;;;7.07;;
19219;SDS011;9744;49.364;7.484;2022-07-23T05:49:43;11.25;;;6.85;;
19219;SDS011;9744;49.364;7.484;2022-07-23T05:52:28;8.70;;;5.90;;
19219;SDS011;9744;49.364;7.484;2022-07-23T05:55:35;7.47;;;6.00;;
19219;SDS011;9744;49.364;7.484;2022-07-23T05:58:03;18.00;;;6.32;;
19219;SDS011;9744;49.364;7.484;2022-07-23T06:00:30;10.80;;;6.40;;
19219;SDS011;9744;49.364;7.484;2022-07-23T06:02:58;24.63;;;7.18;;
19219;SDS011;9744;49.364;7.484;2022-07-23T06:05:28;40.47;;;7.15;;
19219;SDS011;9744;49.364;7.484;2022-07-23T06:07:56;19.52;;;6.25;;
19219;SDS011;9744;49.364;7.484;2022-07-23T06:10:25;8.90;;;6.22;;
19219;SDS011;9744;49.364;7.484;2022-07-23T06:12:54;9.07;;;6.47;;
19219;SDS011;9744;49.364;7.484;2022-07-23T06:15:21;10.73;;;6.38;;
19219;SDS011;9744;49.364;7.484;2022-07-23T06:17:48;8.48;;;6.28;;
19219;SDS011;9744;49.364;7.484;2022-07-23T06:20:15;16.10;;;6.43;;
19219;SDS011;9744;49.364;7.484;2022-07-23T06:22:43;13.43;;;6.90;;
19219;SDS011;9744;49.364;7.484;2022-07-23T06:25:11;13.25;;;6.57;;
19219;SDS011;9744;49.364;7.484;2022-07-23T06:27:38;9.93;;;6.78;;
19219;SDS011;9744;49.364;7.484;2022-07-23T06:30:08;9.65;;;6.57;;
19219;SDS011;9744;49.364;7.484;2022-07-23T06:32:37;9.98;;;7.65;;
19219;SDS011;9744;49.364;7.484;2022-07-23T06:35:04;9.75;;;7.05;;
19219;SDS011;9744;49.364;7.484;2022-07-23T06:37:32;19.95;;;8.25;;
19219;SDS011;9744;49.364;7.484;2022-07-23T06:40:00;9.40;;;6.97;;
19219;SDS011;9744;49.364;7.484;2022-07-23T06:42:27;9.23;;;7.30;;
19219;SDS011;9744;49.364;7.484;2022-07-23T06:44:58;10.30;;;7.38;;
19219;SDS011;9744;49.364;7.484;2022-07-23T06:47:26;8.25;;;6.60;;
19219;SDS011;9744;49.364;7.484;2022-07-23T06:49:55;11.65;;;8.20;;
19219;SDS011;9744;49.364;7.484;2022-07-23T06:52:24;10.55;;;7.88;;
19219;SDS011;9744;49.364;7.484;2022-07-23T06:54:52;10.50;;;7.88;;
19219;SDS011;9744;49.364;7.484;2022-07-23T06:57:19;11.25;;;7.78;;
19219;SDS011;9744;49.364;7.484;2022-07-23T06:59:48;7.63;;;6.82;;
19219;SDS011;9744;49.364;7.484;2022-07-23T07:02:15;8.63;;;6.72;;
19219;SDS011;9744;49.364;7.484;2022-07-23T07:04:44;7.35;;;6.35;;
19219;SDS011;9744;49.364;7.484;2022-07-23T07:07:11;8.20;;;6.55;;
19219;SDS011;9744;49.364;7.484;2022-07-23T07:09:39;15.07;;;8.10;;
19219;SDS011;9744;49.364;7.484;2022-07-23T07:12:07;9.93;;;6.90;;
19219;SDS011;9744;49.364;7.484;2022-07-23T07:14:35;7.78;;;6.57;;
19219;SDS011;9744;49.364;7.484;2022-07-23T07:17:02;8.65;;;6.75;;
19219;SDS011;9744;49.364;7.484;2022-07-23T07:19:30;10.45;;;6.85;;
19219;SDS011;9744;49.364;7.484;2022-07-23T07:21:59;14.52;;;7.13;;
19219;SDS011;9744;49.364;7.484;2022-07-23T07:24:26;8.60;;;6.90;;
19219;SDS011;9744;49.364;7.484;2022-07-23T07:26:53;7.28;;;6.57;;
19219;SDS011;9744;49.364;7.484;2022-07-23T07:29:21;10.27;;;7.40;;
19219;SDS011;9744;49.364;7.484;2022-07-23T07:31:48;8.50;;;7.30;;
19219;SDS011;9744;49.364;7.484;2022-07-23T07:34:15;10.80;;;8.27;;
19219;SDS011;9744;49.364;7.484;2022-07-23T07:36:42;9.50;;;6.25;;
19219;SDS011;9744;49.364;7.484;2022-07-23T07:39:11;7.93;;;6.07;;
19219;SDS011;9744;49.364;7.484;2022-07-23T07:41:39;8.65;;;7.63;;
19219;SDS011;9744;49.364;7.484;2022-07-23T07:44:07;13.57;;;10.73;;
19219;SDS011;9744;49.364;7.484;2022-07-23T07:46:34;15.27;;;11.18;;
19219;SDS011;9744;49.364;7.484;2022-07-23T07:49:01;11.63;;;10.07;;
19219;SDS011;9744;49.364;7.484;2022-07-23T07:51:28;11.98;;;9.43;;
19219;SDS011;9744;49.364;7.484;2022-07-23T07:53:56;13.98;;;10.18;;
19219;SDS011;9744;49.364;7.484;2022-07-23T07:56:24;14.43;;;9.40;;
19219;SDS011;9744;49.364;7.484;2022-07-23T07:58:52;8.88;;;6.47;;
19219;SDS011;9744;49.364;7.484;2022-07-23T08:01:19;10.98;;;6.47;;
19219;SDS011;9744;49.364;7.484;2022-07-23T08:03:47;10.63;;;6.38;;
19219;SDS011;9744;49.364;7.484;2022-07-23T08:06:15;13.65;;;8.75;;
19219;SDS011;9744;49.364;7.484;2022-07-23T08:08:42;9.05;;;6.95;;
19219;SDS011;9744;49.364;7.484;2022-07-23T08:11:09;10.45;;;9.35;;
19219;SDS011;9744;49.364;7.484;2022-07-23T08:13:38;13.43;;;6.75;;
19219;SDS011;9744;49.364;7.484;2022-07-23T08:16:05;19.83;;;7.38;;
19219;SDS011;9744;49.364;7.484;2022-07-23T08:18:33;7.72;;;6.53;;
19219;SDS011;9744;49.364;7.484;2022-07-23T08:21:02;9.02;;;6.15;;
19219;SDS011;9744;49.364;7.484;2022-07-23T08:23:31;14.02;;;6.20;;
19219;SDS011;9744;49.364;7.484;2022-07-23T08:25:58;9.00;;;6.10;;
19219;SDS011;9744;49.364;7.484;2022-07-23T08:28:26;7.18;;;6.20;;
19219;SDS011;9744;49.364;7.484;2022-07-23T08:30:55;10.57;;;8.07;;
19219;SDS011;9744;49.364;7.484;2022-07-23T08:33:22;10.98;;;6.38;;
19219;SDS011;9744;49.364;7.484;2022-07-23T08:35:50;6.65;;;5.90;;
19219;SDS011;9744;49.364;7.484;2022-07-23T08:38:18;6.53;;;5.35;;
19219;SDS011;9744;49.364;7.484;2022-07-23T08:40:48;13.32;;;7.88;;
19219;SDS011;9744;49.364;7.484;2022-07-23T08:43:16;12.30;;;5.80;;
19219;SDS011;9744;49.364;7.484;2022-07-23T08:45:45;8.32;;;5.55;;
19219;SDS011;9744;49.364;7.484;2022-07-23T08:48:16;9.73;;;6.47;;
19219;SDS011;9744;49.364;7.484;2022-07-23T08:50:45;25.88;;;5.50;;
19219;SDS011;9744;49.364;7.484;2022-07-23T08:53:13;10.90;;;5.28;;
19219;SDS011;9744;49.364;7.484;2022-07-23T08:55:43;13.20;;;5.80;;
19219;SDS011;9744;49.364;7.484;2022-07-23T08:58:11;9.57;;;6.13;;
19219;SDS011;9744;49.364;7.484;2022-07-23T09:00:39;8.60;;;6.05;;
19219;SDS011;9744;49.364;7.484;2022-07-23T09:03:06;8.25;;;5.40;;
19219;SDS011;9744;49.364;7.484;2022-07-23T09:05:35;6.07;;;5.32;;
19219;SDS011;9744;49.364;7.484;2022-07-23T09:08:09;9.93;;;5.95;;
19219;SDS011;9744;49.364;7.484;2022-07-23T09:10:48;10.38;;;5.57;;
19219;SDS011;9744;49.364;7.484;2022-07-23T09:16:09;9.07;;;5.65;;
19219;SDS011;9744;49.364;7.484;2022-07-23T09:18:40;10.13;;;7.97;;
19219;SDS011;9744;49.364;7.484;2022-07-23T09:21:12;6.22;;;5.40;;
19219;SDS011;9744;49.364;7.484;2022-07-23T09:23:41;8.20;;;5.60;;
19219;SDS011;9744;49.364;7.484;2022-07-23T09:26:26;8.48;;;4.97;;
19219;SDS011;9744;49.364;7.484;2022-07-23T09:29:03;16.67;;;5.30;;
19219;SDS011;9744;49.364;7.484;2022-07-23T09:31:49;7.25;;;4.70;;
19219;SDS011;9744;49.364;7.484;2022-07-23T09:34:19;6.10;;;5.00;;
19219;SDS011;9744;49.364;7.484;2022-07-23T09:36:49;9.35;;;6.15;;
19219;SDS011;9744;49.364;7.484;2022-07-23T09:39:22;12.95;;;6.20;;
19219;SDS011;9744;49.364;7.484;2022-07-23T09:41:52;7.40;;;5.82;;
19219;SDS011;9744;49.364;7.484;2022-07-23T09:44:20;6.15;;;5.53;;
19219;SDS011;9744;49.364;7.484;2022-07-23T09:46:48;8.07;;;5.40;;
19219;SDS011;9744;49.364;7.484;2022-07-23T09:49:17;6.47;;;5.38;;
19219;SDS011;9744;49.364;7.484;2022-07-23T09:51:51;7.45;;;6.10;;
19219;SDS011;9744;49.364;7.484;2022-07-23T09:54:21;8.20;;;5.43;;
19219;SDS011;9744;49.364;7.484;2022-07-23T09:56:51;9.10;;;6.35;;
19219;SDS011;9744;49.364;7.484;2022-07-23T09:59:21;9.93;;;4.88;;
19219;SDS011;9744;49.364;7.484;2022-07-23T10:01:50;6.40;;;5.75;;
19219;SDS011;9744;49.364;7.484;2022-07-23T10:04:19;9.48;;;5.88;;
19219;SDS011;9744;49.364;7.484;2022-07-23T10:07:08;5.57;;;4.57;;
19219;SDS011;9744;49.364;7.484;2022-07-23T10:09:54;8.70;;;4.93;;
19219;SDS011;9744;49.364;7.484;2022-07-23T10:12:41;6.38;;;4.40;;
19219;SDS011;9744;49.364;7.484;2022-07-23T10:15:27;7.47;;;4.75;;
19219;SDS011;9744;49.364;7.484;2022-07-23T10:17:55;8.90;;;6.32;;
19219;SDS011;9744;49.364;7.484;2022-07-23T10:20:22;6.63;;;4.47;;
19219;SDS011;9744;49.364;7.484;2022-07-23T10:23:00;7.18;;;4.50;;
19219;SDS011;9744;49.364;7.484;2022-07-23T10:25:39;9.60;;;6.13;;
19219;SDS011;9744;49.364;7.484;2022-07-23T10:28:16;10.48;;;4.55;;
19219;SDS011;9744;49.364;7.484;2022-07-23T10:31:00;6.68;;;5.75;;
19219;SDS011;9744;49.364;7.484;2022-07-23T10:33:32;27.02;;;5.97;;
19219;SDS011;9744;49.364;7.484;2022-07-23T10:36:20;6.78;;;5.25;;
19219;SDS011;9744;49.364;7.484;2022-07-23T10:38:56;6.95;;;5.82;;
19219;SDS011;9744;49.364;7.484;2022-07-23T10:41:33;7.95;;;4.97;;
19219;SDS011;9744;49.364;7.484;2022-07-23T10:44:08;8.82;;;5.63;;
19219;SDS011;9744;49.364;7.484;2022-07-23T10:49:37;5.38;;;4.88;;
19219;SDS011;9744;49.364;7.484;2022-07-23T10:58:01;10.85;;;4.97;;
19219;SDS011;9744;49.364;7.484;2022-07-23T11:00:29;5.40;;;4.70;;
19219;SDS011;9744;49.364;7.484;2022-07-23T11:02:58;7.35;;;4.50;;
19219;SDS011;9744;49.364;7.484;2022-07-23T11:05:26;9.35;;;5.40;;
19219;SDS011;9744;49.364;7.484;2022-07-23T11:08:15;5.60;;;5.10;;
19219;SDS011;9744;49.364;7.484;2022-07-23T11:10:52;6.03;;;5.20;;
19219;SDS011;9744;49.364;7.484;2022-07-23T11:13:33;8.98;;;6.10;;
19219;SDS011;9744;49.364;7.484;2022-07-23T11:16:10;13.30;;;7.55;;
19219;SDS011;9744;49.364;7.484;2022-07-23T11:18:52;6.57;;;4.93;;
19219;SDS011;9744;49.364;7.484;2022-07-23T11:24:23;6.30;;;5.70;;
19219;SDS011;9744;49.364;7.484;2022-07-23T11:26:53;8.88;;;5.97;;
19219;SDS011;9744;49.364;7.484;2022-07-23T11:29:42;7.97;;;5.85;;
19219;SDS011;9744;49.364;7.484;2022-07-23T11:32:31;6.13;;;5.38;;
19219;SDS011;9744;49.364;7.484;2022-07-23T11:35:00;6.82;;;6.03;;
19219;SDS011;9744;49.364;7.484;2022-07-23T11:37:31;8.10;;;5.15;;
19219;SDS011;9744;49.364;7.484;2022-07-23T11:40:00;7.55;;;5.68;;
19219;SDS011;9744;49.364;7.484;2022-07-23T11:42:31;6.32;;;5.43;;
19219;SDS011;9744;49.364;7.484;2022-07-23T11:45:00;6.75;;;5.97;;
19219;SDS011;9744;49.364;7.484;2022-07-23T11:47:27;8.52;;;4.30;;
19219;SDS011;9744;49.364;7.484;2022-07-23T11:49:55;9.68;;;5.80;;
19219;SDS011;9744;49.364;7.484;2022-07-23T11:52:23;7.40;;;5.30;;
19219;SDS011;9744;49.364;7.484;2022-07-23T11:54:53;8.68;;;4.75;;
19219;SDS011;9744;49.364;7.484;2022-07-23T11:57:29;8.43;;;5.72;;
19219;SDS011;9744;49.364;7.484;2022-07-23T12:00:01;6.78;;;4.88;;
19219;SDS011;9744;49.364;7.484;2022-07-23T12:02:37;5.88;;;4.55;;
19219;SDS011;9744;49.364;7.484;2022-07-23T12:05:05;5.13;;;4.60;;
19219;SDS011;9744;49.364;7.484;2022-07-23T12:07:35;5.50;;;4.63;;
19219;SDS011;9744;49.364;7.484;2022-07-23T12:10:03;7.45;;;4.35;;
19219;SDS011;9744;49.364;7.484;2022-07-23T12:12:36;8.45;;;5.22;;
19219;SDS011;9744;49.364;7.484;2022-07-23T12:15:06;7.82;;;6.30;;
19219;SDS011;9744;49.364;7.484;2022-07-23T12:17:35;5.63;;;4.63;;
19219;SDS011;9744;49.364;7.484;2022-07-23T12:20:04;6.07;;;4.75;;
19219;SDS011;9744;49.364;7.484;2022-07-23T12:22:34;8.00;;;4.32;;
19219;SDS011;9744;49.364;7.484;2022-07-23T12:25:03;7.97;;;6.05;;
19219;SDS011;9744;49.364;7.484;2022-07-23T12:27:33;5.45;;;4.95;;
19219;SDS011;9744;49.364;7.484;2022-07-23T12:30:19;4.60;;;4.20;;
19219;SDS011;9744;49.364;7.484;2022-07-23T12:32:49;6.38;;;4.47;;
19219;SDS011;9744;49.364;7.484;2022-07-23T12:35:18;9.45;;;5.32;;
19219;SDS011;9744;49.364;7.484;2022-07-23T12:37:47;8.18;;;5.78;;
19219;SDS011;9744;49.364;7.484;2022-07-23T12:40:24;7.00;;;5.63;;
19219;SDS011;9744;49.364;7.484;2022-07-23T12:42:55;8.25;;;5.75;;
19219;SDS011;9744;49.364;7.484;2022-07-23T12:45:26;6.03;;;5.40;;
19219;SDS011;9744;49.364;7.484;2022-07-23T12:48:02;8.20;;;5.90;;
19219;SDS011;9744;49.364;7.484;2022-07-23T12:50:35;5.55;;;4.95;;
19219;SDS011;9744;49.364;7.484;2022-07-23T12:53:05;6.82;;;6.10;;
19219;SDS011;9744;49.364;7.484;2022-07-23T12:55:34;7.38;;;5.88;;
19219;SDS011;9744;49.364;7.484;2022-07-23T12:58:12;7.57;;;5.88;;
19219;SDS011;9744;49.364;7.484;2022-07-23T13:03:33;10.30;;;6.90;;
19219;SDS011;9744;49.364;7.484;2022-07-23T13:06:03;12.30;;;6.72;;
19219;SDS011;9744;49.364;7.484;2022-07-23T13:08:32;7.78;;;6.97;;
19219;SDS011;9744;49.364;7.484;2022-07-23T13:11:01;9.60;;;6.95;;
19219;SDS011;9744;49.364;7.484;2022-07-23T13:13:30;6.45;;;5.32;;
19219;SDS011;9744;49.364;7.484;2022-07-23T13:15:59;8.20;;;6.28;;
19219;SDS011;9744;49.364;7.484;2022-07-23T13:18:29;7.40;;;6.25;;
19219;SDS011;9744;49.364;7.484;2022-07-23T13:20:56;6.68;;;5.68;;
19219;SDS011;9744;49.364;7.484;2022-07-23T13:23:24;11.10;;;6.70;;
19219;SDS011;9744;49.364;7.484;2022-07-23T13:25:51;10.93;;;6.50;;
19219;SDS011;9744;49.364;7.484;2022-07-23T13:28:20;8.70;;;5.93;;
19219;SDS011;9744;49.364;7.484;2022-07-23T13:30:49;7.03;;;5.93;;
19219;SDS011;9744;49.364;7.484;2022-07-23T13:33:17;7.28;;;5.70;;
19219;SDS011;9744;49.364;7.484;2022-07-23T13:35:49;7.28;;;5.35;;
19219;SDS011;9744;49.364;7.484;2022-07-23T13:38:17;6.28;;;5.25;;
19219;SDS011;9744;49.364;7.484;2022-07-23T13:40:45;6.72;;;5.95;;
19219;SDS011;9744;49.364;7.484;2022-07-23T13:43:14;10.35;;;6.60;;
19219;SDS011;9744;49.364;7.484;2022-07-23T13:45:42;9.75;;;5.35;;
19219;SDS011;9744;49.364;7.484;2022-07-23T13:48:10;7.63;;;6.03;;
19219;SDS011;9744;49.364;7.484;2022-07-23T13:50:38;8.07;;;5.80;;
19219;SDS011;9744;49.364;7.484;2022-07-23T13:53:10;8.07;;;5.70;;
19219;SDS011;9744;49.364;7.484;2022-07-23T13:55:39;8.57;;;6.13;;
19219;SDS011;9744;49.364;7.484;2022-07-23T13:58:07;10.93;;;5.78;;
19219;SDS011;9744;49.364;7.484;2022-07-23T14:00:36;10.23;;;5.88;;
19219;SDS011;9744;49.364;7.484;2022-07-23T14:03:05;5.88;;;5.25;;
19219;SDS011;9744;49.364;7.484;2022-07-23T14:05:32;9.77;;;5.97;;
19219;SDS011;9744;49.364;7.484;2022-07-23T14:08:01;8.70;;;5.10;;
19219;SDS011;9744;49.364;7.484;2022-07-23T14:10:30;5.30;;;4.80;;
19219;SDS011;9744;49.364;7.484;2022-07-23T14:12:57;6.10;;;5.50;;
19219;SDS011;9744;49.364;7.484;2022-07-23T14:15:25;5.32;;;4.82;;
19219;SDS011;9744;49.364;7.484;2022-07-23T14:17:54;5.53;;;4.70;;
19219;SDS011;9744;49.364;7.484;2022-07-23T14:20:22;7.53;;;5.00;;
19219;SDS011;9744;49.364;7.484;2022-07-23T14:22:50;9.27;;;4.97;;
19219;SDS011;9744;49.364;7.484;2022-07-23T14:25:18;5.45;;;4.95;;
19219;SDS011;9744;49.364;7.484;2022-07-23T14:27:47;6.93;;;4.97;;
19219;SDS011;9744;49.364;7.484;2022-07-23T14:30:14;6.07;;;5.43;;
19219;SDS011;9744;49.364;7.484;2022-07-23T14:32:42;5.97;;;5.00;;
19219;SDS011;9744;49.364;7.484;2022-07-23T14:35:09;9.30;;;5.22;;
19219;SDS011;9744;49.364;7.484;2022-07-23T14:37:37;9.02;;;5.32;;
19219;SDS011;9744;49.364;7.484;2022-07-23T14:40:06;6.15;;;4.95;;
19219;SDS011;9744;49.364;7.484;2022-07-23T14:42:34;6.05;;;5.38;;
19219;SDS011;9744;49.364;7.484;2022-07-23T14:45:02;7.18;;;5.90;;
19219;SDS011;9744;49.364;7.484;2022-07-23T14:47:31;7.63;;;6.03;;
19219;SDS011;9744;49.364;7.484;2022-07-23T14:49:59;5.90;;;4.95;;
19219;SDS011;9744;49.364;7.484;2022-07-23T14:52:26;7.22;;;4.95;;
19219;SDS011;9744;49.364;7.484;2022-07-23T14:54:53;8.45;;;5.47;;
19219;SDS011;9744;49.364;7.484;2022-07-23T14:57:21;5.80;;;4.88;;
19219;SDS011;9744;49.364;7.484;2022-07-23T14:59:48;5.75;;;4.65;;
19219;SDS011;9744;49.364;7.484;2022-07-23T15:02:16;5.50;;;4.80;;
19219;SDS011;9744;49.364;7.484;2022-07-23T15:04:44;9.00;;;5.22;;
19219;SDS011;9744;49.364;7.484;2022-07-23T15:07:11;7.90;;;4.88;;
19219;SDS011;9744;49.364;7.484;2022-07-23T15:09:38;5.68;;;4.80;;
19219;SDS011;9744;49.364;7.484;2022-07-23T15:12:05;6.10;;;4.50;;
19219;SDS011;9744;49.364;7.484;2022-07-23T15:14:33;7.63;;;5.50;;
19219;SDS011;9744;49.364;7.484;2022-07-23T15:17:00;6.82;;;5.07;;
19219;SDS011;9744;49.364;7.484;2022-07-23T15:19:29;9.57;;;5.53;;
19219;SDS011;9744;49.364;7.484;2022-07-23T15:21:56;8.43;;;6.13;;
19219;SDS011;9744;49.364;7.484;2022-07-23T15:24:24;8.07;;;4.95;;
19219;SDS011;9744;49.364;7.484;2022-07-23T15:26:52;5.97;;;4.75;;
19219;SDS011;9744;49.364;7.484;2022-07-23T15:29:19;6.07;;;4.30;;